Time;durP1;ratioP1;P1;durP2;ratioP2;P2;SDS_P1;SDS_P2;PMS_P1;PMS_P2;Temp;Humidity;BMP_temperature;BMP_pressure;BME280_temperature;BME280_humidity;BME280_pressure;Samples;Min_cycle;Max_cycle;Signal;HPM_P1;HPM_P2
2024/03/03 00:00:24;;;;;;;15.37;13.23;;;;;;;;;;5128898;27;20942;-64
2024/03/03 00:02:51;;;;;;;15.77;14.17;;;;;;;;;;5127641;27;20453;-66
2024/03/03 00:05:19;;;;;;;15.83;13.77;;;;;;;;;;5128046;27;20512;-65
2024/03/03 00:07:45;;;;;;;14.50;13.00;;;;;;;;;;5130936;27;20473;-63
2024/03/03 00:10:12;;;;;;;14.73;13.10;;;;;;;;;;5125266;27;20970;-65
2024/03/03 00:12:38;;;;;;;16.23;14.53;;;;;;;;;;5118301;27;20457;-63
2024/03/03 00:15:05;;;;;;;17.30;15.47;;;;;;;;;;5127119;27;20447;-64
2024/03/03 00:17:31;;;;;;;15.73;13.87;;;;;;;;;;5126280;27;20470;-65
2024/03/03 00:19:58;;;;;;;15.73;14.07;;;;;;;;;;5116453;27;20526;-64
2024/03/03 00:22:25;;;;;;;15.67;14.10;;;;;;;;;;5115377;27;20451;-65
2024/03/03 00:24:52;;;;;;;16.23;13.93;;;;;;;;;;5120141;28;20520;-65
2024/03/03 00:27:18;;;;;;;15.13;13.43;;;;;;;;;;5120714;27;20450;-64
2024/03/03 00:29:45;;;;;;;13.53;12.13;;;;;;;;;;5118745;28;20488;-64
2024/03/03 00:32:11;;;;;;;12.87;11.57;;;;;;;;;;5126171;27;20477;-64
2024/03/03 00:34:37;;;;;;;14.03;11.73;;;;;;;;;;5123252;27;20457;-64
2024/03/03 00:37:04;;;;;;;14.37;11.67;;;;;;;;;;5132999;27;20434;-66
2024/03/03 00:39:32;;;;;;;14.57;12.00;;;;;;;;;;5117451;27;20998;-66
2024/03/03 00:41:58;;;;;;;13.40;11.20;;;;;;;;;;5119596;27;20461;-62
2024/03/03 00:44:24;;;;;;;13.97;11.30;;;;;;;;;;5130531;27;20519;-63
2024/03/03 00:46:51;;;;;;;12.53;11.00;;;;;;;;;;5114446;27;20469;-63
2024/03/03 00:49:17;;;;;;;14.57;12.20;;;;;;;;;;5124264;27;20470;-63
2024/03/03 00:51:43;;;;;;;14.80;11.47;;;;;;;;;;5122860;27;20907;-64
2024/03/03 00:54:09;;;;;;;14.90;12.10;;;;;;;;;;5122190;27;20446;-64
2024/03/03 00:56:37;;;;;;;13.90;11.70;;;;;;;;;;5123564;27;20352;-63
2024/03/03 00:59:04;;;;;;;14.67;12.10;;;;;;;;;;5128556;27;20477;-63
2024/03/03 01:01:31;;;;;;;13.47;12.13;;;;;;;;;;5123708;27;20430;-63
2024/03/03 01:03:57;;;;;;;13.83;12.50;;;;;;;;;;5116041;27;20481;-64
2024/03/03 01:06:24;;;;;;;14.70;12.37;;;;;;;;;;5121812;27;20450;-65
2024/03/03 01:08:50;;;;;;;14.43;12.53;;;;;;;;;;5115305;28;20847;-65
2024/03/03 01:11:17;;;;;;;18.40;13.07;;;;;;;;;;5127144;27;20561;-66
2024/03/03 01:13:44;;;;;;;12.90;11.60;;;;;;;;;;5123758;27;20465;-64
2024/03/03 01:16:11;;;;;;;15.33;13.73;;;;;;;;;;5124049;27;21017;-65
2024/03/03 01:18:37;;;;;;;13.20;11.80;;;;;;;;;;5116618;27;20454;-64
2024/03/03 01:21:04;;;;;;;14.30;12.80;;;;;;;;;;5122894;27;20590;-64
2024/03/03 01:23:30;;;;;;;14.83;13.33;;;;;;;;;;5124262;27;20449;-66
2024/03/03 01:25:57;;;;;;;14.37;12.00;;;;;;;;;;5113449;27;21013;-65
2024/03/03 01:28:23;;;;;;;13.97;11.93;;;;;;;;;;5119230;27;20461;-65
2024/03/03 01:30:51;;;;;;;15.07;13.37;;;;;;;;;;5123836;27;20526;-65
2024/03/03 01:33:17;;;;;;;14.80;12.93;;;;;;;;;;5109677;27;20499;-66
2024/03/03 01:35:44;;;;;;;14.97;13.30;;;;;;;;;;5102828;28;20968;-65
2024/03/03 01:38:10;;;;;;;14.10;12.17;;;;;;;;;;5118725;27;20475;-65
2024/03/03 01:40:36;;;;;;;13.40;12.07;;;;;;;;;;5119293;27;20485;-63
2024/03/03 01:43:03;;;;;;;13.80;12.27;;;;;;;;;;5122673;27;20494;-64
2024/03/03 01:45:31;;;;;;;13.37;12.07;;;;;;;;;;5115458;28;20489;-64
2024/03/03 01:47:59;;;;;;;14.50;12.80;;;;;;;;;;5108642;27;20497;-64
2024/03/03 01:50:25;;;;;;;14.60;12.20;;;;;;;;;;5115759;27;20473;-64
2024/03/03 01:52:52;;;;;;;15.80;11.57;;;;;;;;;;5125376;27;20514;-66
2024/03/03 01:55:19;;;;;;;14.43;10.70;;;;;;;;;;5110693;27;20474;-65
2024/03/03 01:57:46;;;;;;;14.90;11.93;;;;;;;;;;5112882;27;20458;-63
2024/03/03 02:00:13;;;;;;;15.07;13.23;;;;;;;;;;5111157;27;20485;-65
2024/03/03 02:02:40;;;;;;;15.90;12.37;;;;;;;;;;5123368;27;20528;-65
2024/03/03 02:05:09;;;;;;;14.90;12.60;;;;;;;;;;5121424;27;20527;-64
2024/03/03 02:07:35;;;;;;;15.80;12.83;;;;;;;;;;5116070;27;20505;-64
2024/03/03 02:10:02;;;;;;;16.27;12.00;;;;;;;;;;5102144;28;20527;-65
2024/03/03 02:12:29;;;;;;;16.73;12.27;;;;;;;;;;5101530;28;20997;-64
2024/03/03 02:14:55;;;;;;;13.80;12.40;;;;;;;;;;5113329;27;20442;-64
2024/03/03 02:17:22;;;;;;;16.40;12.50;;;;;;;;;;5119176;27;20501;-63
2024/03/03 02:19:48;;;;;;;13.53;12.10;;;;;;;;;;5115101;28;20837;-64
2024/03/03 02:22:16;;;;;;;17.27;14.67;;;;;;;;;;5117500;28;20482;-63
2024/03/03 02:24:42;;;;;;;14.00;12.60;;;;;;;;;;5121582;27;20518;-64
2024/03/03 02:27:10;;;;;;;17.03;13.37;;;;;;;;;;5121370;27;20448;-64
2024/03/03 02:29:36;;;;;;;17.37;12.93;;;;;;;;;;5117869;28;21121;-64
2024/03/03 02:32:03;;;;;;;17.97;15.83;;;;;;;;;;5113926;27;20477;-65
2024/03/03 02:34:29;;;;;;;15.80;14.10;;;;;;;;;;5125687;27;20485;-64
2024/03/03 02:36:55;;;;;;;17.27;14.20;;;;;;;;;;5119584;28;20863;-65
2024/03/03 02:39:23;;;;;;;18.50;12.93;;;;;;;;;;5115825;28;20497;-64
2024/03/03 02:41:50;;;;;;;16.67;13.07;;;;;;;;;;5113647;28;20488;-64
2024/03/03 02:44:16;;;;;;;13.40;12.07;;;;;;;;;;5108458;28;20463;-64
2024/03/03 02:46:42;;;;;;;15.00;12.50;;;;;;;;;;5110269;28;20509;-63
2024/03/03 02:49:09;;;;;;;14.53;13.03;;;;;;;;;;5105781;28;20455;-64
2024/03/03 02:51:35;;;;;;;15.57;13.17;;;;;;;;;;5118417;28;20806;-65
2024/03/03 02:54:02;;;;;;;14.40;12.77;;;;;;;;;;5117474;28;20480;-65
2024/03/03 02:56:29;;;;;;;14.83;13.43;;;;;;;;;;5120617;28;20503;-65
2024/03/03 02:58:56;;;;;;;15.90;13.37;;;;;;;;;;5106022;28;20489;-66
2024/03/03 03:01:22;;;;;;;15.10;13.33;;;;;;;;;;5111340;28;20470;-64
2024/03/03 03:03:48;;;;;;;15.93;12.97;;;;;;;;;;5113821;28;20482;-65
2024/03/03 03:06:15;;;;;;;16.43;13.10;;;;;;;;;;5123185;28;20524;-65
2024/03/03 03:08:41;;;;;;;14.73;13.27;;;;;;;;;;5122629;28;20469;-64
2024/03/03 03:11:08;;;;;;;14.47;13.07;;;;;;;;;;5129517;28;20510;-63
2024/03/03 03:13:35;;;;;;;15.37;13.10;;;;;;;;;;5123650;27;20476;-64
2024/03/03 03:16:04;;;;;;;17.57;13.90;;;;;;;;;;5119712;27;20455;-64
2024/03/03 03:18:31;;;;;;;15.93;13.33;;;;;;;;;;5111835;27;20473;-65
2024/03/03 03:20:57;;;;;;;17.17;12.43;;;;;;;;;;5124598;27;20485;-65
2024/03/03 03:23:24;;;;;;;13.60;12.20;;;;;;;;;;5129166;27;20793;-65
2024/03/03 03:25:51;;;;;;;14.13;12.70;;;;;;;;;;5131593;27;20484;-64
2024/03/03 03:28:17;;;;;;;15.53;12.43;;;;;;;;;;5113283;28;20482;-63
2024/03/03 03:30:45;;;;;;;17.40;13.37;;;;;;;;;;5131083;27;20457;-64
2024/03/03 03:33:11;;;;;;;15.73;14.13;;;;;;;;;;5128597;27;20505;-65
2024/03/03 03:35:38;;;;;;;16.40;13.70;;;;;;;;;;5122700;27;20445;-65
2024/03/03 03:38:04;;;;;;;15.30;13.50;;;;;;;;;;5107634;27;20447;-65
2024/03/03 03:40:33;;;;;;;19.30;13.40;;;;;;;;;;5126974;27;20501;-65
2024/03/03 03:43:04;;;;;;;18.80;14.53;;;;;;;;;;5115316;27;20477;-64
2024/03/03 03:45:30;;;;;;;18.43;14.70;;;;;;;;;;5121437;27;20481;-64
2024/03/03 03:47:58;;;;;;;15.50;13.57;;;;;;;;;;5127406;27;20564;-64
2024/03/03 03:50:24;;;;;;;17.57;13.77;;;;;;;;;;5114489;27;20465;-65
2024/03/03 03:52:50;;;;;;;19.50;13.93;;;;;;;;;;5117285;28;20481;-65
2024/03/03 03:55:17;;;;;;;15.83;13.67;;;;;;;;;;5108471;28;20491;-64
2024/03/03 03:57:43;;;;;;;17.10;14.03;;;;;;;;;;5124433;27;20521;-65
2024/03/03 04:00:10;;;;;;;16.67;14.23;;;;;;;;;;5111169;28;20534;-65
2024/03/03 04:02:37;;;;;;;17.80;13.10;;;;;;;;;;5122025;27;20446;-65
2024/03/03 04:05:05;;;;;;;16.67;13.63;;;;;;;;;;5124246;27;20549;-65
2024/03/03 04:07:32;;;;;;;15.33;13.40;;;;;;;;;;5121719;27;20903;-63
2024/03/03 04:09:58;;;;;;;16.10;12.93;;;;;;;;;;5118962;27;20466;-64
2024/03/03 04:12:25;;;;;;;18.77;13.77;;;;;;;;;;5121842;27;20473;-64
2024/03/03 04:14:52;;;;;;;17.33;13.70;;;;;;;;;;5111866;28;21018;-65
2024/03/03 04:17:18;;;;;;;18.27;13.83;;;;;;;;;;5120363;27;20447;-65
2024/03/03 04:19:44;;;;;;;15.57;13.27;;;;;;;;;;5105269;27;20485;-65
2024/03/03 04:22:12;;;;;;;15.97;14.10;;;;;;;;;;5116673;27;20434;-64
2024/03/03 04:24:39;;;;;;;17.80;13.70;;;;;;;;;;5132335;27;20509;-64
2024/03/03 04:27:05;;;;;;;16.83;14.00;;;;;;;;;;5123375;27;20529;-65
2024/03/03 04:29:32;;;;;;;16.33;14.50;;;;;;;;;;5127480;27;20480;-64
2024/03/03 04:31:59;;;;;;;18.63;14.70;;;;;;;;;;5112586;27;20455;-65
2024/03/03 04:34:25;;;;;;;18.13;14.90;;;;;;;;;;5118675;27;20441;-65
2024/03/03 04:36:52;;;;;;;16.40;14.30;;;;;;;;;;5117236;27;20906;-64
2024/03/03 04:39:20;;;;;;;15.47;13.13;;;;;;;;;;5129014;27;21224;-64
2024/03/03 04:41:47;;;;;;;15.07;12.80;;;;;;;;;;5112751;28;20473;-64
2024/03/03 04:44:13;;;;;;;16.13;14.20;;;;;;;;;;5111001;27;20485;-65
2024/03/03 04:46:40;;;;;;;19.27;14.47;;;;;;;;;;5123390;27;20482;-64
2024/03/03 04:49:06;;;;;;;17.43;15.53;;;;;;;;;;5106337;28;20946;-65
2024/03/03 04:51:32;;;;;;;16.70;14.50;;;;;;;;;;5125278;27;20445;-64
2024/03/03 04:53:59;;;;;;;16.80;14.00;;;;;;;;;;5125505;27;20477;-63
2024/03/03 04:56:28;;;;;;;19.57;14.50;;;;;;;;;;5122082;27;20482;-63
2024/03/03 04:58:54;;;;;;;17.40;15.50;;;;;;;;;;5116989;27;20537;-63
2024/03/03 05:01:21;;;;;;;15.80;13.73;;;;;;;;;;5118780;28;20442;-63
2024/03/03 05:03:47;;;;;;;21.37;14.57;;;;;;;;;;5111394;28;20459;-64
2024/03/03 05:06:14;;;;;;;19.70;14.17;;;;;;;;;;5111446;28;21218;-64
2024/03/03 05:08:40;;;;;;;15.80;14.03;;;;;;;;;;5120814;27;20466;-64
2024/03/03 05:11:06;;;;;;;17.20;14.60;;;;;;;;;;5110410;28;20486;-64
2024/03/03 05:13:34;;;;;;;16.40;14.60;;;;;;;;;;5129221;27;20461;-65
2024/03/03 05:16:00;;;;;;;17.73;14.23;;;;;;;;;;5127847;27;20466;-65
2024/03/03 05:18:27;;;;;;;18.27;14.87;;;;;;;;;;5117784;28;20480;-65
2024/03/03 05:20:53;;;;;;;18.60;14.17;;;;;;;;;;5120020;27;20458;-65
2024/03/03 05:23:20;;;;;;;17.77;14.60;;;;;;;;;;5130002;27;20517;-64
2024/03/03 05:25:46;;;;;;;19.00;13.03;;;;;;;;;;5110867;27;20586;-65
2024/03/03 05:28:12;;;;;;;17.67;13.93;;;;;;;;;;5119501;27;20470;-65
2024/03/03 05:30:40;;;;;;;19.70;13.87;;;;;;;;;;5120267;27;20480;-65
2024/03/03 05:33:07;;;;;;;17.07;13.70;;;;;;;;;;5127072;27;20507;-65
2024/03/03 05:35:33;;;;;;;15.50;13.27;;;;;;;;;;5121381;27;20509;-64
2024/03/03 05:38:00;;;;;;;22.83;13.40;;;;;;;;;;5125518;27;20521;-65
2024/03/03 05:40:27;;;;;;;17.13;15.30;;;;;;;;;;5116385;27;20476;-65
2024/03/03 05:42:53;;;;;;;16.90;14.20;;;;;;;;;;5106648;28;20475;-64
2024/03/03 05:45:20;;;;;;;19.30;13.97;;;;;;;;;;5114876;27;20523;-64
2024/03/03 05:47:47;;;;;;;18.23;15.00;;;;;;;;;;5110582;27;20886;-65
2024/03/03 05:50:14;;;;;;;16.20;12.87;;;;;;;;;;5115382;27;20474;-65
2024/03/03 05:52:40;;;;;;;18.77;14.10;;;;;;;;;;5103894;27;20855;-65
2024/03/03 05:55:08;;;;;;;16.60;14.60;;;;;;;;;;5127538;27;20493;-65
2024/03/03 05:57:34;;;;;;;21.30;14.40;;;;;;;;;;5126836;27;20461;-65
2024/03/03 06:00:01;;;;;;;20.33;14.03;;;;;;;;;;5117952;27;20546;-65
2024/03/03 06:02:27;;;;;;;17.27;14.53;;;;;;;;;;5115243;27;20497;-64
2024/03/03 06:04:55;;;;;;;18.67;14.10;;;;;;;;;;5126255;27;20886;-64
2024/03/03 06:07:21;;;;;;;17.50;13.50;;;;;;;;;;5119633;27;20489;-64
2024/03/03 06:09:48;;;;;;;16.30;13.87;;;;;;;;;;5120038;27;20474;-64
2024/03/03 06:12:15;;;;;;;20.53;14.83;;;;;;;;;;5110384;28;20515;-64
2024/03/03 06:14:42;;;;;;;18.00;15.10;;;;;;;;;;5102761;28;20458;-65
2024/03/03 06:17:08;;;;;;;19.23;14.47;;;;;;;;;;5119488;27;20477;-64
2024/03/03 06:19:35;;;;;;;15.53;12.63;;;;;;;;;;5124483;27;20473;-65
2024/03/03 06:22:03;;;;;;;17.30;13.73;;;;;;;;;;5125541;27;21035;-64
2024/03/03 06:24:29;;;;;;;18.80;14.67;;;;;;;;;;5120679;27;20454;-64
2024/03/03 06:26:56;;;;;;;20.73;14.37;;;;;;;;;;5124498;27;20518;-64
2024/03/03 06:29:22;;;;;;;21.27;15.57;;;;;;;;;;5122495;27;20500;-64
2024/03/03 06:31:49;;;;;;;18.23;13.87;;;;;;;;;;5118322;28;20529;-64
2024/03/03 06:34:15;;;;;;;23.03;16.20;;;;;;;;;;5125566;27;20477;-64
2024/03/03 06:36:42;;;;;;;18.70;15.43;;;;;;;;;;5125532;27;20449;-64
2024/03/03 06:39:12;;;;;;;20.53;15.57;;;;;;;;;;5123171;27;20493;-63
2024/03/03 06:41:39;;;;;;;17.90;14.57;;;;;;;;;;5126056;27;20458;-63
2024/03/03 06:44:06;;;;;;;19.30;15.43;;;;;;;;;;5129931;28;20525;-63
2024/03/03 06:46:32;;;;;;;19.63;16.33;;;;;;;;;;5130644;27;20577;-63
2024/03/03 06:48:59;;;;;;;17.77;15.73;;;;;;;;;;5126018;27;20471;-64
2024/03/03 06:51:25;;;;;;;19.30;15.40;;;;;;;;;;5115123;28;20478;-63
2024/03/03 06:53:52;;;;;;;17.07;15.33;;;;;;;;;;5126133;27;20482;-63
2024/03/03 06:56:20;;;;;;;16.30;14.60;;;;;;;;;;5114714;27;20463;-62
2024/03/03 06:58:46;;;;;;;15.87;14.30;;;;;;;;;;5122046;27;20460;-66
2024/03/03 07:01:13;;;;;;;16.30;14.67;;;;;;;;;;5136141;27;20454;-65
2024/03/03 07:04:02;;;;;;;16.30;14.63;;;;;;;;;;5127585;27;20930;-65
2024/03/03 07:06:29;;;;;;;14.30;12.80;;;;;;;;;;5130926;27;21021;-65
2024/03/03 07:08:55;;;;;;;16.77;14.60;;;;;;;;;;5130436;27;20525;-64
2024/03/03 07:11:23;;;;;;;13.30;12.00;;;;;;;;;;5127011;27;20488;-65
2024/03/03 07:13:49;;;;;;;15.80;14.10;;;;;;;;;;5119207;27;20969;-64
2024/03/03 07:16:16;;;;;;;16.63;15.03;;;;;;;;;;5125559;27;20515;-65
2024/03/03 07:18:42;;;;;;;15.47;13.90;;;;;;;;;;5109381;28;20489;-65
2024/03/03 07:21:08;;;;;;;16.07;14.47;;;;;;;;;;5117539;27;20445;-64
2024/03/03 07:23:35;;;;;;;16.23;14.70;;;;;;;;;;5116972;28;20951;-64
2024/03/03 07:26:01;;;;;;;16.97;15.37;;;;;;;;;;5119267;27;20517;-64
2024/03/03 07:28:29;;;;;;;16.80;15.30;;;;;;;;;;5111681;27;20454;-62
2024/03/03 07:30:55;;;;;;;17.00;15.30;;;;;;;;;;5134745;27;20450;-64
2024/03/03 07:33:22;;;;;;;16.13;14.67;;;;;;;;;;5118857;27;21030;-64
2024/03/03 07:35:48;;;;;;;16.17;14.57;;;;;;;;;;5126413;27;20487;-64
2024/03/03 07:38:15;;;;;;;18.17;14.40;;;;;;;;;;5117971;28;20481;-63
2024/03/03 07:40:44;;;;;;;15.10;13.50;;;;;;;;;;5125534;27;20485;-65
2024/03/03 07:43:11;;;;;;;16.30;14.70;;;;;;;;;;5129974;27;20540;-66
2024/03/03 07:45:39;;;;;;;17.13;15.43;;;;;;;;;;5120134;27;20485;-66
2024/03/03 07:48:06;;;;;;;16.03;14.53;;;;;;;;;;5111743;28;20936;-65
2024/03/03 07:50:32;;;;;;;17.10;15.40;;;;;;;;;;5125108;27;20462;-65
2024/03/03 07:52:59;;;;;;;17.73;15.83;;;;;;;;;;5129350;27;20499;-65
2024/03/03 07:55:25;;;;;;;17.00;15.30;;;;;;;;;;5127962;27;20450;-65
2024/03/03 07:57:51;;;;;;;17.63;15.83;;;;;;;;;;5110018;27;20461;-66
2024/03/03 08:00:18;;;;;;;14.90;13.33;;;;;;;;;;5120842;27;20492;-66
2024/03/03 08:02:46;;;;;;;14.57;13.07;;;;;;;;;;5109730;27;20454;-65
2024/03/03 08:05:12;;;;;;;15.33;13.83;;;;;;;;;;5106520;28;20967;-64
2024/03/03 08:07:38;;;;;;;17.00;15.23;;;;;;;;;;5118163;27;20505;-64
2024/03/03 08:10:05;;;;;;;15.77;14.40;;;;;;;;;;5113186;28;20496;-66
2024/03/03 08:12:32;;;;;;;15.67;14.03;;;;;;;;;;5108172;28;20884;-66
2024/03/03 08:15:00;;;;;;;15.40;13.90;;;;;;;;;;5109916;28;20487;-66
2024/03/03 08:17:26;;;;;;;14.90;13.60;;;;;;;;;;5115945;27;20431;-66
2024/03/03 08:19:54;;;;;;;16.27;14.80;;;;;;;;;;5113060;28;20466;-66
2024/03/03 08:22:20;;;;;;;16.10;14.37;;;;;;;;;;5122033;27;20516;-66
2024/03/03 08:24:47;;;;;;;14.50;13.10;;;;;;;;;;5124465;27;20481;-66
2024/03/03 08:27:13;;;;;;;14.27;12.97;;;;;;;;;;5111128;27;20525;-64
2024/03/03 08:29:39;;;;;;;15.67;14.20;;;;;;;;;;5108687;27;20514;-64
2024/03/03 08:32:07;;;;;;;15.20;13.90;;;;;;;;;;5110149;27;20530;-64
2024/03/03 08:34:34;;;;;;;15.07;13.70;;;;;;;;;;5122569;27;20457;-64
2024/03/03 08:37:03;;;;;;;15.60;14.00;;;;;;;;;;5116303;27;20559;-64
2024/03/03 08:39:29;;;;;;;15.80;14.47;;;;;;;;;;5111755;27;20508;-64
2024/03/03 08:41:55;;;;;;;14.63;13.33;;;;;;;;;;5110647;28;20500;-64
2024/03/03 08:44:22;;;;;;;15.40;14.00;;;;;;;;;;5099613;28;21314;-63
2024/03/03 08:46:50;;;;;;;16.13;14.73;;;;;;;;;;5105282;28;20505;-64
2024/03/03 08:49:17;;;;;;;15.20;13.90;;;;;;;;;;5114028;27;20806;-64
2024/03/03 08:51:43;;;;;;;17.40;15.80;;;;;;;;;;5108487;27;20904;-64
2024/03/03 08:54:11;;;;;;;16.17;14.63;;;;;;;;;;5105703;28;20439;-64
2024/03/03 08:56:37;;;;;;;14.60;13.20;;;;;;;;;;5111453;27;20450;-67
2024/03/03 08:59:04;;;;;;;21.17;19.47;;;;;;;;;;5124787;27;20467;-64
2024/03/03 09:01:30;;;;;;;20.47;18.93;;;;;;;;;;5123332;27;20493;-64
2024/03/03 09:03:57;;;;;;;21.50;19.90;;;;;;;;;;5119484;28;20478;-64
2024/03/03 09:06:23;;;;;;;20.83;19.20;;;;;;;;;;5125227;27;20541;-64
2024/03/03 09:08:50;;;;;;;15.13;13.60;;;;;;;;;;5121467;27;20455;-64
2024/03/03 09:11:17;;;;;;;16.17;14.63;;;;;;;;;;5126495;27;20450;-64
2024/03/03 09:13:44;;;;;;;15.10;13.70;;;;;;;;;;5122452;27;20477;-64
2024/03/03 09:16:11;;;;;;;14.77;13.40;;;;;;;;;;5116796;27;20494;-64
2024/03/03 09:18:38;;;;;;;15.43;13.50;;;;;;;;;;5122523;27;20447;-64
2024/03/03 09:21:06;;;;;;;14.27;12.87;;;;;;;;;;5122635;27;20913;-64
2024/03/03 09:23:33;;;;;;;16.30;14.80;;;;;;;;;;5123705;27;20470;-66
2024/03/03 09:25:59;;;;;;;18.57;16.90;;;;;;;;;;5106837;28;20494;-65
2024/03/03 09:28:27;;;;;;;18.10;16.50;;;;;;;;;;5117551;27;20569;-64
2024/03/03 09:30:54;;;;;;;16.27;14.77;;;;;;;;;;5116833;28;20454;-64
2024/03/03 09:33:20;;;;;;;17.80;16.00;;;;;;;;;;5112281;27;20530;-64
2024/03/03 09:35:46;;;;;;;18.53;16.67;;;;;;;;;;5117250;27;20479;-64
2024/03/03 09:38:13;;;;;;;17.03;15.27;;;;;;;;;;5117075;27;20456;-64
2024/03/03 09:40:39;;;;;;;17.53;15.67;;;;;;;;;;5121062;27;20483;-63
2024/03/03 09:43:07;;;;;;;18.70;16.80;;;;;;;;;;5122280;27;20461;-63
2024/03/03 09:45:35;;;;;;;16.33;14.63;;;;;;;;;;5123284;27;20549;-63
2024/03/03 09:48:03;;;;;;;17.30;15.70;;;;;;;;;;5123743;27;20473;-63
2024/03/03 09:50:29;;;;;;;17.00;15.43;;;;;;;;;;5125399;27;20445;-63
2024/03/03 09:52:56;;;;;;;17.67;15.90;;;;;;;;;;5112567;27;20511;-62
2024/03/03 09:55:23;;;;;;;17.63;15.83;;;;;;;;;;5106368;27;20464;-66
2024/03/03 09:57:49;;;;;;;17.60;16.00;;;;;;;;;;5115421;27;20542;-65
2024/03/03 10:00:16;;;;;;;17.47;15.90;;;;;;;;;;5108901;27;20451;-65
2024/03/03 10:02:44;;;;;;;18.10;16.30;;;;;;;;;;5115454;27;20503;-63
2024/03/03 10:05:11;;;;;;;15.90;14.50;;;;;;;;;;5108172;27;21006;-65
2024/03/03 10:07:39;;;;;;;18.13;16.43;;;;;;;;;;5120983;27;20482;-63
2024/03/03 10:10:08;;;;;;;16.70;15.20;;;;;;;;;;5106130;28;20478;-63
2024/03/03 10:12:35;;;;;;;17.30;15.60;;;;;;;;;;5104777;28;20465;-64
2024/03/03 10:15:04;;;;;;;17.40;15.60;;;;;;;;;;5113854;27;20453;-62
2024/03/03 10:17:31;;;;;;;16.90;15.20;;;;;;;;;;5113569;27;20455;-63
2024/03/03 10:20:00;;;;;;;16.30;14.70;;;;;;;;;;5121473;27;20446;-64
2024/03/03 10:22:27;;;;;;;18.57;16.70;;;;;;;;;;5130070;27;20442;-64
2024/03/03 10:25:07;;;;;;;17.30;15.60;;;;;;;;;;5112715;28;20534;-66
2024/03/03 10:27:33;;;;;;;17.07;15.27;;;;;;;;;;5117238;27;20503;-66
2024/03/03 10:30:03;;;;;;;15.47;13.93;;;;;;;;;;5123968;27;20483;-64
2024/03/03 10:32:30;;;;;;;18.37;16.63;;;;;;;;;;5118710;28;20466;-65
2024/03/03 10:34:57;;;;;;;18.73;16.90;;;;;;;;;;5114482;28;20457;-64
2024/03/03 10:37:25;;;;;;;19.00;17.30;;;;;;;;;;5116962;28;20442;-65
2024/03/03 10:39:51;;;;;;;18.37;16.70;;;;;;;;;;5121512;28;20493;-67
2024/03/03 10:42:18;;;;;;;19.77;18.03;;;;;;;;;;5118853;28;20544;-67
2024/03/03 10:44:45;;;;;;;20.57;18.57;;;;;;;;;;5120675;28;20454;-65
2024/03/03 10:47:14;;;;;;;19.10;17.43;;;;;;;;;;5118710;28;20572;-64
2024/03/03 10:49:40;;;;;;;19.03;17.43;;;;;;;;;;5118721;28;20446;-64
2024/03/03 10:52:08;;;;;;;19.67;17.70;;;;;;;;;;5119958;28;20509;-65
2024/03/03 10:54:36;;;;;;;21.00;17.63;;;;;;;;;;5100791;28;20490;-65
2024/03/03 10:57:03;;;;;;;20.13;18.27;;;;;;;;;;5119763;28;20502;-65
2024/03/03 10:59:30;;;;;;;20.23;18.20;;;;;;;;;;5124094;28;20435;-67
2024/03/03 11:01:57;;;;;;;20.20;18.20;;;;;;;;;;5105556;28;20434;-66
2024/03/03 11:07:29;;;;;;;20.93;18.73;;;;;;;;;;5093825;28;20533;-66
2024/03/03 11:09:57;;;;;;;18.13;16.40;;;;;;;;;;5116810;28;20870;-63
2024/03/03 11:12:26;;;;;;;18.40;16.30;;;;;;;;;;5098500;28;20479;-67
2024/03/03 11:14:55;;;;;;;17.80;15.80;;;;;;;;;;5126891;28;20501;-64
2024/03/03 11:17:22;;;;;;;20.50;16.77;;;;;;;;;;5119496;28;20449;-65
2024/03/03 11:19:49;;;;;;;17.27;15.53;;;;;;;;;;5118047;28;20475;-64
2024/03/03 11:22:18;;;;;;;18.97;17.07;;;;;;;;;;5103725;28;20475;-65
2024/03/03 11:24:49;;;;;;;21.53;14.73;;;;;;;;;;5125291;28;20526;-65
2024/03/03 11:27:22;;;;;;;16.97;15.27;;;;;;;;;;5116399;28;20549;-66
2024/03/03 11:29:49;;;;;;;19.73;16.90;;;;;;;;;;5113598;28;20501;-66
2024/03/03 11:32:16;;;;;;;20.30;18.27;;;;;;;;;;5122375;28;20438;-66
2024/03/03 15:58:07;;;;;;;26.10;21.33;;;;;;;;;;5044320;28;20510;-65
2024/03/03 16:00:33;;;;;;;29.20;23.70;;;;;;;;;;5078476;28;20817;-66
2024/03/03 16:03:00;;;;;;;30.00;24.10;;;;;;;;;;5075896;28;20468;-65
2024/03/03 16:08:29;;;;;;;31.60;25.03;;;;;;;;;;5057691;28;20447;-66
2024/03/03 16:10:56;;;;;;;30.90;25.97;;;;;;;;;;5070190;28;20452;-65
2024/03/03 16:13:23;;;;;;;32.20;25.57;;;;;;;;;;5076403;28;20455;-63
2024/03/03 16:15:50;;;;;;;31.80;27.47;;;;;;;;;;5078097;28;20517;-65
2024/03/03 16:18:16;;;;;;;34.20;26.77;;;;;;;;;;5078549;28;20443;-65
2024/03/03 16:20:43;;;;;;;30.63;25.53;;;;;;;;;;5074113;28;20517;-64
2024/03/03 16:23:10;;;;;;;32.07;25.03;;;;;;;;;;5078977;28;20455;-65
2024/03/03 16:25:36;;;;;;;34.70;26.50;;;;;;;;;;5075798;28;20480;-65
2024/03/03 16:28:03;;;;;;;37.53;32.40;;;;;;;;;;5074850;28;20495;-63
2024/03/03 16:30:30;;;;;;;39.60;35.30;;;;;;;;;;5077008;28;20487;-65
2024/03/03 16:32:57;;;;;;;38.20;34.07;;;;;;;;;;5076577;28;20483;-64
2024/03/03 16:35:23;;;;;;;37.80;33.70;;;;;;;;;;5078553;28;20447;-64
2024/03/03 16:37:51;;;;;;;35.50;31.73;;;;;;;;;;5075770;28;20486;-64
2024/03/03 16:40:18;;;;;;;35.90;28.23;;;;;;;;;;5079849;28;20444;-63
2024/03/03 16:42:52;;;;;;;35.20;27.60;;;;;;;;;;5075505;28;20532;-64
2024/03/03 16:45:19;;;;;;;36.57;28.30;;;;;;;;;;5077379;28;20524;-76
2024/03/03 16:47:46;;;;;;;38.13;28.43;;;;;;;;;;5078527;28;20476;-65
2024/03/03 16:50:13;;;;;;;38.33;28.80;;;;;;;;;;5073908;28;20466;-65
2024/03/03 16:52:39;;;;;;;40.03;28.53;;;;;;;;;;5077514;28;20502;-65
2024/03/03 16:55:06;;;;;;;35.87;27.63;;;;;;;;;;5075617;28;20463;-65
2024/03/03 16:57:32;;;;;;;42.53;29.90;;;;;;;;;;5072399;28;21176;-65
2024/03/03 16:59:59;;;;;;;36.30;28.73;;;;;;;;;;5081206;28;20506;-61
2024/03/03 17:02:25;;;;;;;37.37;28.43;;;;;;;;;;5077495;28;22041;-64
2024/03/03 17:04:53;;;;;;;38.93;30.17;;;;;;;;;;5082170;28;20488;-65
2024/03/03 17:07:20;;;;;;;38.90;29.50;;;;;;;;;;5068412;28;20499;-67
2024/03/03 17:09:46;;;;;;;35.87;28.90;;;;;;;;;;5076397;28;20471;-65
2024/03/03 17:12:12;;;;;;;37.43;28.63;;;;;;;;;;5084806;28;20513;-67
2024/03/03 17:14:39;;;;;;;37.37;29.93;;;;;;;;;;5077733;28;20995;-66
2024/03/03 17:17:05;;;;;;;39.23;29.87;;;;;;;;;;5080314;28;20475;-66
2024/03/03 17:19:32;;;;;;;37.03;28.60;;;;;;;;;;5078605;28;20489;-65
2024/03/03 17:22:00;;;;;;;36.83;28.43;;;;;;;;;;5077340;28;20480;-66
2024/03/03 17:24:26;;;;;;;35.87;29.70;;;;;;;;;;5074187;28;20494;-66
2024/03/03 17:26:52;;;;;;;37.93;31.43;;;;;;;;;;5077907;28;20490;-67
2024/03/03 17:29:20;;;;;;;36.93;28.73;;;;;;;;;;5065719;28;20545;-66
2024/03/03 17:31:47;;;;;;;38.60;29.13;;;;;;;;;;5078400;28;20455;-67
2024/03/03 17:34:13;;;;;;;35.63;26.60;;;;;;;;;;5085321;28;20451;-66
2024/03/03 17:36:40;;;;;;;39.83;31.10;;;;;;;;;;5078769;28;20452;-66
2024/03/03 17:39:08;;;;;;;42.70;35.53;;;;;;;;;;5078375;28;20505;-66
2024/03/03 17:41:34;;;;;;;41.53;33.83;;;;;;;;;;5071056;28;20475;-65
2024/03/03 17:44:01;;;;;;;37.87;31.20;;;;;;;;;;5083727;28;20448;-66
2024/03/03 17:46:27;;;;;;;36.23;27.73;;;;;;;;;;5076837;28;20554;-66
2024/03/03 17:48:54;;;;;;;47.10;31.63;;;;;;;;;;5075724;28;20472;-66
2024/03/03 17:51:20;;;;;;;39.50;30.00;;;;;;;;;;5085313;28;20459;-66
2024/03/03 17:53:47;;;;;;;40.63;29.60;;;;;;;;;;5078329;28;20495;-67
2024/03/03 17:56:15;;;;;;;44.77;31.20;;;;;;;;;;5077462;28;21414;-66
2024/03/03 17:58:41;;;;;;;38.43;30.03;;;;;;;;;;5085979;28;20474;-66
2024/03/03 18:01:07;;;;;;;44.80;32.63;;;;;;;;;;5077293;28;20495;-66
2024/03/03 18:03:34;;;;;;;42.97;32.13;;;;;;;;;;5076054;28;20472;-67
2024/03/03 18:06:00;;;;;;;40.83;31.10;;;;;;;;;;5074991;28;20845;-65
2024/03/03 18:08:27;;;;;;;44.73;31.83;;;;;;;;;;5075366;28;20480;-66
2024/03/03 18:10:53;;;;;;;45.57;33.73;;;;;;;;;;5076902;28;20800;-67
2024/03/03 18:13:21;;;;;;;49.30;35.00;;;;;;;;;;5078463;28;20448;-66
2024/03/03 18:15:48;;;;;;;49.00;33.50;;;;;;;;;;5081275;28;20448;-68
2024/03/03 18:18:15;;;;;;;43.73;32.70;;;;;;;;;;5076629;28;20967;-67
2024/03/03 18:20:41;;;;;;;45.70;34.10;;;;;;;;;;5077592;28;20464;-67
2024/03/03 18:23:07;;;;;;;42.60;31.20;;;;;;;;;;5078950;28;20447;-67
2024/03/03 18:25:35;;;;;;;39.70;31.00;;;;;;;;;;5081943;28;20485;-67
2024/03/03 18:28:02;;;;;;;45.57;30.27;;;;;;;;;;5073965;28;20466;-66
2024/03/03 18:30:30;;;;;;;45.60;30.13;;;;;;;;;;5077359;28;20458;-67
2024/03/03 18:32:56;;;;;;;43.03;32.93;;;;;;;;;;5071656;28;20468;-67
2024/03/03 18:35:23;;;;;;;44.17;32.10;;;;;;;;;;5081063;28;20539;-67
2024/03/03 18:37:50;;;;;;;45.87;32.20;;;;;;;;;;5079576;28;20452;-66
2024/03/03 18:40:17;;;;;;;42.67;32.83;;;;;;;;;;5081785;28;20464;-65
2024/03/03 18:42:44;;;;;;;39.83;29.67;;;;;;;;;;5081414;28;20487;-65